Aérodrome :







RETROUVEZ-NOUS SUR...

 
LOGIN :

S'inscrire | Disclaimer

   EN    FR    IT 

 









Légende :    VFR   VFR Marginal   IFR   IFR Intensif   IFR Très Intensif
Visi : 
Plafond : 
>= 8 km
>= 3000ft
5 à 8 km
1000 à 3000 ft
1500m à 5 km
500 à 1000 ft
800 à 1500m
200 à 500 ft
< 800m
< 200 ft
Symboles :   Orages  Brouillard  Fortes neiges  Fortes précipitations  Vent > 20 kt






- Altitude de l'aérodrome : 165 ft
- Code IATA : SFJ


BGSF - KangerLussuaq

DERNIER METAR :
  • 150150Z AUTO 06005KT 9999NDV OVC049/// M14/M17 Q1014

METARs EXPIRÉS :
  • 150050Z AUTO 06006KT 9999NDV BKN055/// M15/M18 Q1014
  • 142350Z AUTO 05005KT 350V100 9999NDV BKN049/// M14/M17 Q1013

TAF TAF BGSF
Valide du 14 à 18h jusqu'au 15 à 03h UTC


141649Z 1418/1503 05008KT 9999 BKN045
TEMPO 1418/1503 BKN035



MET'MAP, la Météo Aéronautique d'un coup d'oeil ! - Copyright ORBIFLY Décembre 2007 - Disclaimer

ORBIFLY MET'MAP TEAM :

Programmation & Développement : Alexandra Zaïnal
Sur une idée originale de : Baudouin d'Aumeries
Assistance à la programmation : Marc-Olivier Méhu
Soutien technique & logistique : Manuel Goepfert

Contact : metmap@orbifly.com




SOURCES & CREDITS :

   NOAA